sensor_id;sensor_type;location;lat;lon;timestamp;P1;durP1;ratioP1;P2;durP2;ratioP2
7997;SDS011;4044;49.814;7.828;2022-07-21T00:00:03;29.73;;;26.73;;
7997;SDS011;4044;49.814;7.828;2022-07-21T00:02:32;26.88;;;24.27;;
7997;SDS011;4044;49.814;7.828;2022-07-21T00:04:57;17.30;;;15.80;;
7997;SDS011;4044;49.814;7.828;2022-07-21T00:07:23;14.48;;;13.18;;
7997;SDS011;4044;49.814;7.828;2022-07-21T00:09:48;14.88;;;13.52;;
7997;SDS011;4044;49.814;7.828;2022-07-21T00:12:14;10.70;;;9.80;;
7997;SDS011;4044;49.814;7.828;2022-07-21T00:14:39;11.52;;;10.50;;
7997;SDS011;4044;49.814;7.828;2022-07-21T00:17:05;10.25;;;9.25;;
7997;SDS011;4044;49.814;7.828;2022-07-21T00:19:30;10.57;;;9.50;;
7997;SDS011;4044;49.814;7.828;2022-07-21T00:21:56;10.18;;;9.00;;
7997;SDS011;4044;49.814;7.828;2022-07-21T00:24:21;9.38;;;8.63;;
7997;SDS011;4044;49.814;7.828;2022-07-21T00:26:47;9.45;;;8.48;;
7997;SDS011;4044;49.814;7.828;2022-07-21T00:29:12;7.57;;;6.97;;
7997;SDS011;4044;49.814;7.828;2022-07-21T00:31:38;7.28;;;6.57;;
7997;SDS011;4044;49.814;7.828;2022-07-21T00:34:03;6.93;;;6.43;;
7997;SDS011;4044;49.814;7.828;2022-07-21T00:36:29;6.97;;;6.43;;
7997;SDS011;4044;49.814;7.828;2022-07-21T00:38:54;8.35;;;6.70;;
7997;SDS011;4044;49.814;7.828;2022-07-21T00:41:20;7.53;;;6.65;;
7997;SDS011;4044;49.814;7.828;2022-07-21T00:43:45;7.30;;;6.70;;
7997;SDS011;4044;49.814;7.828;2022-07-21T00:46:11;7.65;;;6.95;;
7997;SDS011;4044;49.814;7.828;2022-07-21T00:48:36;7.47;;;6.80;;
7997;SDS011;4044;49.814;7.828;2022-07-21T00:51:02;8.32;;;7.43;;
7997;SDS011;4044;49.814;7.828;2022-07-21T00:53:28;8.18;;;7.38;;
7997;SDS011;4044;49.814;7.828;2022-07-21T00:55:53;8.25;;;7.55;;
7997;SDS011;4044;49.814;7.828;2022-07-21T00:58:19;9.38;;;8.68;;
7997;SDS011;4044;49.814;7.828;2022-07-21T01:00:45;8.90;;;8.10;;
7997;SDS011;4044;49.814;7.828;2022-07-21T01:03:11;9.30;;;8.48;;
7997;SDS011;4044;49.814;7.828;2022-07-21T01:05:36;8.95;;;8.13;;
7997;SDS011;4044;49.814;7.828;2022-07-21T01:08:02;9.68;;;8.77;;
7997;SDS011;4044;49.814;7.828;2022-07-21T01:10:28;9.07;;;8.25;;
7997;SDS011;4044;49.814;7.828;2022-07-21T01:12:55;8.98;;;8.25;;
7997;SDS011;4044;49.814;7.828;2022-07-21T01:15:22;10.02;;;9.15;;
7997;SDS011;4044;49.814;7.828;2022-07-21T01:17:48;11.13;;;10.02;;
7997;SDS011;4044;49.814;7.828;2022-07-21T01:20:15;10.18;;;9.27;;
7997;SDS011;4044;49.814;7.828;2022-07-21T01:22:43;10.52;;;9.63;;
7997;SDS011;4044;49.814;7.828;2022-07-21T01:25:11;10.30;;;9.40;;
7997;SDS011;4044;49.814;7.828;2022-07-21T01:27:37;11.18;;;10.05;;
7997;SDS011;4044;49.814;7.828;2022-07-21T01:30:04;10.98;;;9.98;;
7997;SDS011;4044;49.814;7.828;2022-07-21T01:32:33;10.48;;;9.57;;
7997;SDS011;4044;49.814;7.828;2022-07-21T01:34:59;10.40;;;9.48;;
7997;SDS011;4044;49.814;7.828;2022-07-21T01:37:27;10.75;;;9.75;;
7997;SDS011;4044;49.814;7.828;2022-07-21T01:39:53;12.85;;;9.30;;
7997;SDS011;4044;49.814;7.828;2022-07-21T01:42:38;11.73;;;9.98;;
7997;SDS011;4044;49.814;7.828;2022-07-21T01:45:03;11.40;;;10.32;;
7997;SDS011;4044;49.814;7.828;2022-07-21T01:47:30;10.63;;;9.70;;
7997;SDS011;4044;49.814;7.828;2022-07-21T01:49:56;13.88;;;12.68;;
7997;SDS011;4044;49.814;7.828;2022-07-21T01:52:22;13.00;;;11.68;;
7997;SDS011;4044;49.814;7.828;2022-07-21T01:54:47;12.60;;;11.50;;
7997;SDS011;4044;49.814;7.828;2022-07-21T01:57:13;13.30;;;12.00;;
7997;SDS011;4044;49.814;7.828;2022-07-21T01:59:38;12.05;;;10.85;;
7997;SDS011;4044;49.814;7.828;2022-07-21T02:02:04;12.07;;;11.07;;
7997;SDS011;4044;49.814;7.828;2022-07-21T02:04:30;12.18;;;11.00;;
7997;SDS011;4044;49.814;7.828;2022-07-21T02:06:55;11.73;;;10.63;;
7997;SDS011;4044;49.814;7.828;2022-07-21T02:09:21;11.85;;;10.85;;
7997;SDS011;4044;49.814;7.828;2022-07-21T02:11:46;12.13;;;10.98;;
7997;SDS011;4044;49.814;7.828;2022-07-21T02:14:12;12.52;;;11.48;;
7997;SDS011;4044;49.814;7.828;2022-07-21T02:16:37;12.55;;;11.32;;
7997;SDS011;4044;49.814;7.828;2022-07-21T02:19:03;12.55;;;11.35;;
7997;SDS011;4044;49.814;7.828;2022-07-21T02:21:29;14.13;;;12.77;;
7997;SDS011;4044;49.814;7.828;2022-07-21T02:23:54;14.13;;;12.70;;
7997;SDS011;4044;49.814;7.828;2022-07-21T02:26:20;13.93;;;12.45;;
7997;SDS011;4044;49.814;7.828;2022-07-21T02:28:46;13.85;;;12.55;;
7997;SDS011;4044;49.814;7.828;2022-07-21T02:31:11;14.23;;;12.82;;
7997;SDS011;4044;49.814;7.828;2022-07-21T02:33:37;13.90;;;12.60;;
7997;SDS011;4044;49.814;7.828;2022-07-21T02:36:03;13.93;;;12.55;;
7997;SDS011;4044;49.814;7.828;2022-07-21T02:38:28;14.25;;;12.90;;
7997;SDS011;4044;49.814;7.828;2022-07-21T02:40:54;14.38;;;12.80;;
7997;SDS011;4044;49.814;7.828;2022-07-21T02:43:19;13.57;;;12.38;;
7997;SDS011;4044;49.814;7.828;2022-07-21T02:45:45;13.75;;;12.15;;
7997;SDS011;4044;49.814;7.828;2022-07-21T02:48:12;14.55;;;13.15;;
7997;SDS011;4044;49.814;7.828;2022-07-21T02:50:39;14.02;;;12.73;;
7997;SDS011;4044;49.814;7.828;2022-07-21T02:53:08;14.70;;;13.27;;
7997;SDS011;4044;49.814;7.828;2022-07-21T02:55:38;15.48;;;13.90;;
7997;SDS011;4044;49.814;7.828;2022-07-21T03:00:35;13.75;;;12.25;;
7997;SDS011;4044;49.814;7.828;2022-07-21T03:03:03;11.70;;;10.57;;
7997;SDS011;4044;49.814;7.828;2022-07-21T03:05:29;12.80;;;11.45;;
7997;SDS011;4044;49.814;7.828;2022-07-21T03:07:56;12.35;;;11.20;;
7997;SDS011;4044;49.814;7.828;2022-07-21T03:10:21;10.40;;;9.48;;
7997;SDS011;4044;49.814;7.828;2022-07-21T03:12:47;15.25;;;10.95;;
7997;SDS011;4044;49.814;7.828;2022-07-21T03:15:12;11.80;;;10.60;;
7997;SDS011;4044;49.814;7.828;2022-07-21T03:17:38;9.90;;;8.90;;
7997;SDS011;4044;49.814;7.828;2022-07-21T03:20:03;11.30;;;10.20;;
7997;SDS011;4044;49.814;7.828;2022-07-21T03:22:29;10.07;;;9.18;;
7997;SDS011;4044;49.814;7.828;2022-07-21T03:24:55;9.38;;;8.57;;
7997;SDS011;4044;49.814;7.828;2022-07-21T03:27:20;12.05;;;10.40;;
7997;SDS011;4044;49.814;7.828;2022-07-21T03:29:46;10.50;;;9.52;;
7997;SDS011;4044;49.814;7.828;2022-07-21T03:32:11;11.25;;;10.23;;
7997;SDS011;4044;49.814;7.828;2022-07-21T03:34:37;11.63;;;10.48;;
7997;SDS011;4044;49.814;7.828;2022-07-21T03:37:02;12.23;;;11.13;;
7997;SDS011;4044;49.814;7.828;2022-07-21T03:39:28;12.55;;;11.45;;
7997;SDS011;4044;49.814;7.828;2022-07-21T03:41:54;12.43;;;11.20;;
7997;SDS011;4044;49.814;7.828;2022-07-21T03:44:19;14.43;;;11.77;;
7997;SDS011;4044;49.814;7.828;2022-07-21T03:46:45;13.00;;;11.70;;
7997;SDS011;4044;49.814;7.828;2022-07-21T03:49:10;12.43;;;11.25;;
7997;SDS011;4044;49.814;7.828;2022-07-21T03:51:36;12.50;;;11.40;;
7997;SDS011;4044;49.814;7.828;2022-07-21T03:54:01;13.05;;;11.85;;
7997;SDS011;4044;49.814;7.828;2022-07-21T03:56:27;12.27;;;11.27;;
7997;SDS011;4044;49.814;7.828;2022-07-21T03:58:53;12.90;;;11.48;;
7997;SDS011;4044;49.814;7.828;2022-07-21T04:01:19;12.38;;;11.15;;
7997;SDS011;4044;49.814;7.828;2022-07-21T04:03:44;12.73;;;11.57;;
7997;SDS011;4044;49.814;7.828;2022-07-21T04:06:10;12.73;;;11.43;;
7997;SDS011;4044;49.814;7.828;2022-07-21T04:08:36;13.05;;;11.85;;
7997;SDS011;4044;49.814;7.828;2022-07-21T04:11:02;12.65;;;11.35;;
7997;SDS011;4044;49.814;7.828;2022-07-21T04:13:28;12.43;;;11.25;;
7997;SDS011;4044;49.814;7.828;2022-07-21T04:15:54;13.10;;;11.90;;
7997;SDS011;4044;49.814;7.828;2022-07-21T04:18:19;11.95;;;10.75;;
7997;SDS011;4044;49.814;7.828;2022-07-21T04:20:45;11.93;;;10.95;;
7997;SDS011;4044;49.814;7.828;2022-07-21T04:23:11;12.80;;;11.60;;
7997;SDS011;4044;49.814;7.828;2022-07-21T04:25:36;15.05;;;11.05;;
7997;SDS011;4044;49.814;7.828;2022-07-21T04:28:03;12.88;;;11.77;;
7997;SDS011;4044;49.814;7.828;2022-07-21T04:30:30;14.40;;;13.00;;
7997;SDS011;4044;49.814;7.828;2022-07-21T04:32:56;13.68;;;12.35;;
7997;SDS011;4044;49.814;7.828;2022-07-21T04:35:22;14.60;;;13.20;;
7997;SDS011;4044;49.814;7.828;2022-07-21T04:37:47;14.07;;;12.77;;
7997;SDS011;4044;49.814;7.828;2022-07-21T04:40:13;14.35;;;13.05;;
7997;SDS011;4044;49.814;7.828;2022-07-21T04:42:39;14.60;;;13.20;;
7997;SDS011;4044;49.814;7.828;2022-07-21T04:45:05;15.55;;;14.02;;
7997;SDS011;4044;49.814;7.828;2022-07-21T04:47:32;15.57;;;13.85;;
7997;SDS011;4044;49.814;7.828;2022-07-21T04:50:06;15.45;;;13.60;;
7997;SDS011;4044;49.814;7.828;2022-07-21T04:52:34;14.43;;;13.02;;
7997;SDS011;4044;49.814;7.828;2022-07-21T04:55:00;15.63;;;13.43;;
7997;SDS011;4044;49.814;7.828;2022-07-21T04:57:25;14.90;;;13.43;;
7997;SDS011;4044;49.814;7.828;2022-07-21T04:59:51;15.52;;;13.98;;
7997;SDS011;4044;49.814;7.828;2022-07-21T05:02:16;15.65;;;13.02;;
7997;SDS011;4044;49.814;7.828;2022-07-21T05:04:42;14.30;;;13.05;;
7997;SDS011;4044;49.814;7.828;2022-07-21T05:07:07;13.63;;;12.43;;
7997;SDS011;4044;49.814;7.828;2022-07-21T05:09:33;14.10;;;12.55;;
7997;SDS011;4044;49.814;7.828;2022-07-21T05:11:58;15.40;;;13.98;;
7997;SDS011;4044;49.814;7.828;2022-07-21T05:14:24;15.85;;;13.55;;
7997;SDS011;4044;49.814;7.828;2022-07-21T05:16:49;15.55;;;13.82;;
7997;SDS011;4044;49.814;7.828;2022-07-21T05:19:15;14.48;;;12.80;;
7997;SDS011;4044;49.814;7.828;2022-07-21T05:21:40;14.38;;;13.07;;
7997;SDS011;4044;49.814;7.828;2022-07-21T05:24:06;14.45;;;12.77;;
7997;SDS011;4044;49.814;7.828;2022-07-21T05:26:32;17.30;;;14.18;;
7997;SDS011;4044;49.814;7.828;2022-07-21T05:28:57;15.20;;;13.70;;
7997;SDS011;4044;49.814;7.828;2022-07-21T05:31:23;12.70;;;11.40;;
7997;SDS011;4044;49.814;7.828;2022-07-21T05:33:48;12.32;;;11.00;;
7997;SDS011;4044;49.814;7.828;2022-07-21T05:36:14;12.95;;;11.65;;
7997;SDS011;4044;49.814;7.828;2022-07-21T05:38:39;10.18;;;9.27;;
7997;SDS011;4044;49.814;7.828;2022-07-21T05:41:05;10.07;;;9.18;;
7997;SDS011;4044;49.814;7.828;2022-07-21T05:43:30;10.40;;;9.50;;
7997;SDS011;4044;49.814;7.828;2022-07-21T05:45:57;9.15;;;8.45;;
7997;SDS011;4044;49.814;7.828;2022-07-21T05:48:22;9.95;;;8.82;;
7997;SDS011;4044;49.814;7.828;2022-07-21T05:50:48;8.95;;;8.05;;
7997;SDS011;4044;49.814;7.828;2022-07-21T05:53:14;9.45;;;8.48;;
7997;SDS011;4044;49.814;7.828;2022-07-21T05:55:39;8.50;;;7.80;;
7997;SDS011;4044;49.814;7.828;2022-07-21T05:58:05;10.55;;;8.15;;
7997;SDS011;4044;49.814;7.828;2022-07-21T06:00:31;9.57;;;8.63;;
7997;SDS011;4044;49.814;7.828;2022-07-21T06:02:56;10.30;;;7.60;;
7997;SDS011;4044;49.814;7.828;2022-07-21T06:05:22;9.00;;;8.30;;
7997;SDS011;4044;49.814;7.828;2022-07-21T06:07:47;9.57;;;8.70;;
7997;SDS011;4044;49.814;7.828;2022-07-21T06:10:13;9.35;;;8.65;;
7997;SDS011;4044;49.814;7.828;2022-07-21T06:12:39;10.25;;;9.27;;
7997;SDS011;4044;49.814;7.828;2022-07-21T06:15:04;10.65;;;8.80;;
7997;SDS011;4044;49.814;7.828;2022-07-21T06:17:31;9.45;;;8.55;;
7997;SDS011;4044;49.814;7.828;2022-07-21T06:20:04;10.10;;;9.10;;
7997;SDS011;4044;49.814;7.828;2022-07-21T06:22:31;9.23;;;8.43;;
7997;SDS011;4044;49.814;7.828;2022-07-21T06:24:56;9.85;;;8.82;;
7997;SDS011;4044;49.814;7.828;2022-07-21T06:27:22;10.50;;;9.60;;
7997;SDS011;4044;49.814;7.828;2022-07-21T06:29:47;10.32;;;9.32;;
7997;SDS011;4044;49.814;7.828;2022-07-21T06:32:13;10.20;;;9.30;;
7997;SDS011;4044;49.814;7.828;2022-07-21T06:34:38;9.80;;;8.88;;
7997;SDS011;4044;49.814;7.828;2022-07-21T06:37:04;9.40;;;8.60;;
7997;SDS011;4044;49.814;7.828;2022-07-21T06:39:29;10.82;;;9.73;;
7997;SDS011;4044;49.814;7.828;2022-07-21T06:41:55;10.27;;;9.25;;
7997;SDS011;4044;49.814;7.828;2022-07-21T06:44:20;10.13;;;9.13;;
7997;SDS011;4044;49.814;7.828;2022-07-21T06:46:46;10.20;;;9.30;;
7997;SDS011;4044;49.814;7.828;2022-07-21T06:49:11;10.27;;;8.93;;
7997;SDS011;4044;49.814;7.828;2022-07-21T06:51:36;10.20;;;9.20;;
7997;SDS011;4044;49.814;7.828;2022-07-21T06:54:02;9.98;;;8.98;;
7997;SDS011;4044;49.814;7.828;2022-07-21T06:56:28;10.73;;;9.85;;
7997;SDS011;4044;49.814;7.828;2022-07-21T06:58:53;9.70;;;8.85;;
7997;SDS011;4044;49.814;7.828;2022-07-21T07:01:19;8.70;;;7.93;;
7997;SDS011;4044;49.814;7.828;2022-07-21T07:03:44;8.73;;;7.90;;
7997;SDS011;4044;49.814;7.828;2022-07-21T07:06:11;8.10;;;7.38;;
7997;SDS011;4044;49.814;7.828;2022-07-21T07:08:37;8.52;;;7.82;;
7997;SDS011;4044;49.814;7.828;2022-07-21T07:11:03;8.27;;;7.47;;
7997;SDS011;4044;49.814;7.828;2022-07-21T07:13:29;7.68;;;7.05;;
7997;SDS011;4044;49.814;7.828;2022-07-21T07:15:55;9.45;;;8.02;;
7997;SDS011;4044;49.814;7.828;2022-07-21T07:18:20;7.43;;;6.72;;
7997;SDS011;4044;49.814;7.828;2022-07-21T07:20:48;7.78;;;6.57;;
7997;SDS011;4044;49.814;7.828;2022-07-21T07:23:15;7.35;;;6.75;;
7997;SDS011;4044;49.814;7.828;2022-07-21T07:25:41;8.32;;;7.13;;
7997;SDS011;4044;49.814;7.828;2022-07-21T07:28:06;6.78;;;6.07;;
7997;SDS011;4044;49.814;7.828;2022-07-21T07:30:33;7.00;;;6.40;;
7997;SDS011;4044;49.814;7.828;2022-07-21T07:32:59;6.78;;;6.10;;
7997;SDS011;4044;49.814;7.828;2022-07-21T07:35:25;7.40;;;6.38;;
7997;SDS011;4044;49.814;7.828;2022-07-21T07:37:51;6.32;;;5.82;;
7997;SDS011;4044;49.814;7.828;2022-07-21T07:40:18;6.20;;;5.70;;
7997;SDS011;4044;49.814;7.828;2022-07-21T07:42:45;8.05;;;6.15;;
7997;SDS011;4044;49.814;7.828;2022-07-21T07:45:11;6.38;;;5.78;;
7997;SDS011;4044;49.814;7.828;2022-07-21T07:47:37;6.57;;;6.05;;
7997;SDS011;4044;49.814;7.828;2022-07-21T07:50:04;6.38;;;5.90;;
7997;SDS011;4044;49.814;7.828;2022-07-21T07:52:32;8.43;;;6.13;;
7997;SDS011;4044;49.814;7.828;2022-07-21T07:54:57;5.57;;;5.28;;
7997;SDS011;4044;49.814;7.828;2022-07-21T07:57:23;6.55;;;5.90;;
7997;SDS011;4044;49.814;7.828;2022-07-21T07:59:48;6.63;;;6.05;;
7997;SDS011;4044;49.814;7.828;2022-07-21T08:02:14;6.70;;;6.15;;
7997;SDS011;4044;49.814;7.828;2022-07-21T08:04:39;6.30;;;5.70;;
7997;SDS011;4044;49.814;7.828;2022-07-21T08:07:08;5.82;;;5.25;;
7997;SDS011;4044;49.814;7.828;2022-07-21T08:09:33;6.13;;;5.63;;
7997;SDS011;4044;49.814;7.828;2022-07-21T08:11:59;7.85;;;5.15;;
7997;SDS011;4044;49.814;7.828;2022-07-21T08:14:24;5.47;;;5.03;;
7997;SDS011;4044;49.814;7.828;2022-07-21T08:16:50;5.82;;;5.22;;
7997;SDS011;4044;49.814;7.828;2022-07-21T08:19:16;5.50;;;5.10;;
7997;SDS011;4044;49.814;7.828;2022-07-21T08:21:41;5.75;;;4.78;;
7997;SDS011;4044;49.814;7.828;2022-07-21T08:24:07;5.43;;;4.57;;
7997;SDS011;4044;49.814;7.828;2022-07-21T08:26:33;5.38;;;4.70;;
7997;SDS011;4044;49.814;7.828;2022-07-21T08:28:58;4.55;;;4.15;;
7997;SDS011;4044;49.814;7.828;2022-07-21T08:31:24;4.60;;;4.20;;
7997;SDS011;4044;49.814;7.828;2022-07-21T08:33:50;4.93;;;4.53;;
7997;SDS011;4044;49.814;7.828;2022-07-21T08:36:16;5.13;;;4.63;;
7997;SDS011;4044;49.814;7.828;2022-07-21T08:38:43;5.68;;;5.20;;
7997;SDS011;4044;49.814;7.828;2022-07-21T08:41:09;4.93;;;4.25;;
7997;SDS011;4044;49.814;7.828;2022-07-21T08:43:35;5.07;;;3.88;;
7997;SDS011;4044;49.814;7.828;2022-07-21T08:46:02;3.80;;;3.55;;
7997;SDS011;4044;49.814;7.828;2022-07-21T08:48:28;4.05;;;3.65;;
7997;SDS011;4044;49.814;7.828;2022-07-21T08:50:54;4.07;;;3.75;;
7997;SDS011;4044;49.814;7.828;2022-07-21T08:53:20;4.05;;;3.75;;
7997;SDS011;4044;49.814;7.828;2022-07-21T08:55:46;4.35;;;4.07;;
7997;SDS011;4044;49.814;7.828;2022-07-21T08:58:12;4.32;;;3.85;;
7997;SDS011;4044;49.814;7.828;2022-07-21T09:00:39;4.13;;;3.72;;
7997;SDS011;4044;49.814;7.828;2022-07-21T09:03:16;4.03;;;3.72;;
7997;SDS011;4044;49.814;7.828;2022-07-21T09:05:58;3.30;;;3.00;;
7997;SDS011;4044;49.814;7.828;2022-07-21T09:08:36;3.38;;;3.20;;
7997;SDS011;4044;49.814;7.828;2022-07-21T09:11:07;3.50;;;3.20;;
7997;SDS011;4044;49.814;7.828;2022-07-21T09:13:34;4.85;;;3.75;;
7997;SDS011;4044;49.814;7.828;2022-07-21T09:15:59;4.00;;;3.70;;
7997;SDS011;4044;49.814;7.828;2022-07-21T09:18:25;4.18;;;3.70;;
7997;SDS011;4044;49.814;7.828;2022-07-21T09:20:51;4.00;;;3.70;;
7997;SDS011;4044;49.814;7.828;2022-07-21T09:23:19;3.50;;;3.20;;
7997;SDS011;4044;49.814;7.828;2022-07-21T09:25:47;3.63;;;3.40;;
7997;SDS011;4044;49.814;7.828;2022-07-21T09:28:18;3.92;;;3.53;;
7997;SDS011;4044;49.814;7.828;2022-07-21T09:35:54;4.53;;;3.88;;
7997;SDS011;4044;49.814;7.828;2022-07-21T09:38:38;3.65;;;3.40;;
7997;SDS011;4044;49.814;7.828;2022-07-21T09:41:17;3.47;;;3.25;;
7997;SDS011;4044;49.814;7.828;2022-07-21T09:43:49;4.13;;;3.30;;
7997;SDS011;4044;49.814;7.828;2022-07-21T09:48:48;3.72;;;3.47;;
7997;SDS011;4044;49.814;7.828;2022-07-21T09:51:28;3.80;;;3.50;;
7997;SDS011;4044;49.814;7.828;2022-07-21T09:54:05;4.60;;;3.70;;
7997;SDS011;4044;49.814;7.828;2022-07-21T09:56:34;4.15;;;3.75;;
7997;SDS011;4044;49.814;7.828;2022-07-21T09:59:02;3.75;;;3.45;;
7997;SDS011;4044;49.814;7.828;2022-07-21T10:01:29;4.35;;;4.05;;
7997;SDS011;4044;49.814;7.828;2022-07-21T10:03:55;4.20;;;3.90;;
7997;SDS011;4044;49.814;7.828;2022-07-21T10:06:23;4.13;;;3.80;;
7997;SDS011;4044;49.814;7.828;2022-07-21T10:08:54;3.97;;;3.67;;
7997;SDS011;4044;49.814;7.828;2022-07-21T10:11:20;4.32;;;4.03;;
7997;SDS011;4044;49.814;7.828;2022-07-21T10:13:47;4.05;;;3.72;;
7997;SDS011;4044;49.814;7.828;2022-07-21T10:16:13;4.22;;;3.75;;
7997;SDS011;4044;49.814;7.828;2022-07-21T10:21:42;4.25;;;3.85;;
7997;SDS011;4044;49.814;7.828;2022-07-21T10:24:16;4.10;;;3.80;;
7997;SDS011;4044;49.814;7.828;2022-07-21T10:32:21;4.85;;;4.43;;
7997;SDS011;4044;49.814;7.828;2022-07-21T10:34:50;4.47;;;4.18;;
7997;SDS011;4044;49.814;7.828;2022-07-21T10:40:04;4.72;;;4.40;;
7997;SDS011;4044;49.814;7.828;2022-07-21T10:48:05;5.25;;;4.85;;
7997;SDS011;4044;49.814;7.828;2022-07-21T10:50:38;6.18;;;5.78;;
7997;SDS011;4044;49.814;7.828;2022-07-21T10:53:14;6.30;;;5.70;;
7997;SDS011;4044;49.814;7.828;2022-07-21T10:55:47;6.25;;;5.78;;
7997;SDS011;4044;49.814;7.828;2022-07-21T10:58:27;6.50;;;5.85;;
7997;SDS011;4044;49.814;7.828;2022-07-21T11:01:05;6.22;;;5.70;;
7997;SDS011;4044;49.814;7.828;2022-07-21T11:03:43;5.78;;;5.40;;
7997;SDS011;4044;49.814;7.828;2022-07-21T11:06:22;6.63;;;6.05;;
7997;SDS011;4044;49.814;7.828;2022-07-21T11:09:05;6.05;;;5.57;;
7997;SDS011;4044;49.814;7.828;2022-07-21T11:12:15;6.40;;;5.80;;
7997;SDS011;4044;49.814;7.828;2022-07-21T11:14:35;6.13;;;5.57;;
7997;SDS011;4044;49.814;7.828;2022-07-21T11:17:05;6.38;;;5.88;;
7997;SDS011;4044;49.814;7.828;2022-07-21T11:19:36;6.10;;;5.60;;
7997;SDS011;4044;49.814;7.828;2022-07-21T11:22:27;6.13;;;5.63;;
7997;SDS011;4044;49.814;7.828;2022-07-21T11:27:20;6.03;;;5.53;;
7997;SDS011;4044;49.814;7.828;2022-07-21T11:29:48;6.28;;;5.82;;
7997;SDS011;4044;49.814;7.828;2022-07-21T11:32:15;6.22;;;5.72;;
7997;SDS011;4044;49.814;7.828;2022-07-21T11:37:14;6.22;;;5.18;;
7997;SDS011;4044;49.814;7.828;2022-07-21T11:39:42;5.40;;;5.00;;
7997;SDS011;4044;49.814;7.828;2022-07-21T11:42:09;5.43;;;5.03;;
7997;SDS011;4044;49.814;7.828;2022-07-21T11:44:40;5.55;;;5.22;;
7997;SDS011;4044;49.814;7.828;2022-07-21T11:47:06;6.22;;;5.72;;
7997;SDS011;4044;49.814;7.828;2022-07-21T11:49:35;5.95;;;5.47;;
7997;SDS011;4044;49.814;7.828;2022-07-21T11:52:05;5.50;;;5.10;;
7997;SDS011;4044;49.814;7.828;2022-07-21T11:54:50;6.03;;;5.30;;
7997;SDS011;4044;49.814;7.828;2022-07-21T11:57:18;6.05;;;5.55;;
7997;SDS011;4044;49.814;7.828;2022-07-21T11:59:45;7.75;;;6.32;;
7997;SDS011;4044;49.814;7.828;2022-07-21T12:02:16;6.55;;;6.05;;
7997;SDS011;4044;49.814;7.828;2022-07-21T12:04:49;6.28;;;5.80;;
7997;SDS011;4044;49.814;7.828;2022-07-21T12:07:21;5.90;;;5.47;;
7997;SDS011;4044;49.814;7.828;2022-07-21T12:09:59;6.13;;;5.53;;
7997;SDS011;4044;49.814;7.828;2022-07-21T12:12:35;6.53;;;5.80;;
7997;SDS011;4044;49.814;7.828;2022-07-21T12:17:52;5.90;;;5.40;;
7997;SDS011;4044;49.814;7.828;2022-07-21T12:20:28;6.05;;;5.45;;
7997;SDS011;4044;49.814;7.828;2022-07-21T12:22:54;6.28;;;5.68;;
7997;SDS011;4044;49.814;7.828;2022-07-21T12:25:34;5.95;;;5.55;;
7997;SDS011;4044;49.814;7.828;2022-07-21T12:28:04;6.13;;;5.53;;
7997;SDS011;4044;49.814;7.828;2022-07-21T12:33:10;7.88;;;5.88;;
7997;SDS011;4044;49.814;7.828;2022-07-21T12:35:39;6.22;;;5.72;;
7997;SDS011;4044;49.814;7.828;2022-07-21T12:38:11;5.30;;;4.90;;
7997;SDS011;4044;49.814;7.828;2022-07-21T12:40:42;5.82;;;5.43;;
7997;SDS011;4044;49.814;7.828;2022-07-21T12:43:19;5.68;;;5.18;;
7997;SDS011;4044;49.814;7.828;2022-07-21T12:45:49;6.38;;;5.88;;
7997;SDS011;4044;49.814;7.828;2022-07-21T12:48:17;5.57;;;5.05;;
7997;SDS011;4044;49.814;7.828;2022-07-21T12:53:43;5.88;;;5.35;;
7997;SDS011;4044;49.814;7.828;2022-07-21T12:56:15;5.25;;;4.85;;
7997;SDS011;4044;49.814;7.828;2022-07-21T12:58:45;5.97;;;5.57;;
7997;SDS011;4044;49.814;7.828;2022-07-21T13:01:12;5.82;;;5.32;;
7997;SDS011;4044;49.814;7.828;2022-07-21T13:03:38;5.43;;;5.00;;
7997;SDS011;4044;49.814;7.828;2022-07-21T13:06:04;5.40;;;5.05;;
7997;SDS011;4044;49.814;7.828;2022-07-21T13:08:31;5.95;;;5.38;;
7997;SDS011;4044;49.814;7.828;2022-07-21T13:10:57;6.30;;;5.90;;
7997;SDS011;4044;49.814;7.828;2022-07-21T13:13:23;6.53;;;5.18;;
7997;SDS011;4044;49.814;7.828;2022-07-21T13:15:49;5.72;;;5.32;;
7997;SDS011;4044;49.814;7.828;2022-07-21T13:18:15;5.88;;;5.38;;
7997;SDS011;4044;49.814;7.828;2022-07-21T13:20:41;6.28;;;5.78;;
7997;SDS011;4044;49.814;7.828;2022-07-21T13:23:07;6.28;;;5.80;;
7997;SDS011;4044;49.814;7.828;2022-07-21T13:25:33;5.95;;;5.50;;
7997;SDS011;4044;49.814;7.828;2022-07-21T13:27:59;5.38;;;4.95;;
7997;SDS011;4044;49.814;7.828;2022-07-21T13:30:25;6.20;;;5.57;;
7997;SDS011;4044;49.814;7.828;2022-07-21T13:32:51;5.72;;;5.30;;
7997;SDS011;4044;49.814;7.828;2022-07-21T13:35:16;5.35;;;5.05;;
7997;SDS011;4044;49.814;7.828;2022-07-21T13:37:42;5.82;;;5.20;;
7997;SDS011;4044;49.814;7.828;2022-07-21T13:40:08;5.22;;;4.82;;
7997;SDS011;4044;49.814;7.828;2022-07-21T13:42:34;5.53;;;5.10;;
7997;SDS011;4044;49.814;7.828;2022-07-21T13:44:59;5.60;;;5.10;;
7997;SDS011;4044;49.814;7.828;2022-07-21T13:47:25;5.65;;;5.22;;
7997;SDS011;4044;49.814;7.828;2022-07-21T13:49:50;5.43;;;5.03;;
7997;SDS011;4044;49.814;7.828;2022-07-21T13:52:16;5.53;;;5.10;;
7997;SDS011;4044;49.814;7.828;2022-07-21T13:54:41;5.25;;;4.95;;
7997;SDS011;4044;49.814;7.828;2022-07-21T13:57:07;5.72;;;5.13;;
7997;SDS011;4044;49.814;7.828;2022-07-21T13:59:33;5.80;;;5.30;;
7997;SDS011;4044;49.814;7.828;2022-07-21T14:01:58;5.45;;;4.95;;
7997;SDS011;4044;49.814;7.828;2022-07-21T14:04:24;5.88;;;5.38;;
7997;SDS011;4044;49.814;7.828;2022-07-21T14:06:49;5.10;;;4.80;;
7997;SDS011;4044;49.814;7.828;2022-07-21T14:09:15;4.75;;;4.53;;
7997;SDS011;4044;49.814;7.828;2022-07-21T14:11:41;5.10;;;4.70;;
7997;SDS011;4044;49.814;7.828;2022-07-21T14:14:08;4.90;;;4.60;;
7997;SDS011;4044;49.814;7.828;2022-07-21T14:16:34;4.80;;;4.40;;
7997;SDS011;4044;49.814;7.828;2022-07-21T14:18:59;5.13;;;4.72;;
7997;SDS011;4044;49.814;7.828;2022-07-21T14:21:25;4.85;;;4.40;;
7997;SDS011;4044;49.814;7.828;2022-07-21T14:23:51;5.10;;;4.72;;
7997;SDS011;4044;49.814;7.828;2022-07-21T14:26:37;5.60;;;5.20;;
7997;SDS011;4044;49.814;7.828;2022-07-21T14:29:03;4.88;;;4.57;;
7997;SDS011;4044;49.814;7.828;2022-07-21T14:31:31;4.50;;;4.28;;
7997;SDS011;4044;49.814;7.828;2022-07-21T14:33:57;5.13;;;4.72;;
7997;SDS011;4044;49.814;7.828;2022-07-21T14:36:22;5.28;;;4.95;;
7997;SDS011;4044;49.814;7.828;2022-07-21T14:38:48;5.43;;;4.70;;
7997;SDS011;4044;49.814;7.828;2022-07-21T14:41:13;5.20;;;4.72;;
7997;SDS011;4044;49.814;7.828;2022-07-21T14:43:39;4.72;;;4.43;;
7997;SDS011;4044;49.814;7.828;2022-07-21T14:46:05;5.38;;;4.97;;
7997;SDS011;4044;49.814;7.828;2022-07-21T14:48:30;5.10;;;4.68;;
7997;SDS011;4044;49.814;7.828;2022-07-21T14:50:56;4.93;;;4.55;;
7997;SDS011;4044;49.814;7.828;2022-07-21T14:53:21;4.70;;;4.40;;
7997;SDS011;4044;49.814;7.828;2022-07-21T14:55:47;5.07;;;4.78;;
7997;SDS011;4044;49.814;7.828;2022-07-21T14:58:13;5.00;;;4.60;;
7997;SDS011;4044;49.814;7.828;2022-07-21T15:00:38;5.10;;;4.80;;
7997;SDS011;4044;49.814;7.828;2022-07-21T15:03:04;5.63;;;4.50;;
7997;SDS011;4044;49.814;7.828;2022-07-21T15:05:29;4.90;;;4.60;;
7997;SDS011;4044;49.814;7.828;2022-07-21T15:07:55;5.05;;;4.68;;
7997;SDS011;4044;49.814;7.828;2022-07-21T15:10:20;4.60;;;4.20;;
7997;SDS011;4044;49.814;7.828;2022-07-21T15:12:46;5.40;;;4.90;;
7997;SDS011;4044;49.814;7.828;2022-07-21T15:15:12;5.35;;;4.95;;
7997;SDS011;4044;49.814;7.828;2022-07-21T15:17:37;4.93;;;4.55;;
7997;SDS011;4044;49.814;7.828;2022-07-21T15:20:03;4.90;;;4.50;;
7997;SDS011;4044;49.814;7.828;2022-07-21T15:22:30;5.10;;;4.65;;
7997;SDS011;4044;49.814;7.828;2022-07-21T15:24:56;4.32;;;3.92;;
7997;SDS011;4044;49.814;7.828;2022-07-21T15:27:23;6.25;;;4.90;;
7997;SDS011;4044;49.814;7.828;2022-07-21T15:29:49;4.60;;;4.30;;
7997;SDS011;4044;49.814;7.828;2022-07-21T15:32:15;4.90;;;4.50;;
7997;SDS011;4044;49.814;7.828;2022-07-21T15:34:40;5.25;;;4.75;;
7997;SDS011;4044;49.814;7.828;2022-07-21T15:37:06;4.50;;;4.10;;
7997;SDS011;4044;49.814;7.828;2022-07-21T15:39:31;4.60;;;4.25;;
7997;SDS011;4044;49.814;7.828;2022-07-21T15:41:58;3.97;;;3.75;;
7997;SDS011;4044;49.814;7.828;2022-07-21T15:44:24;4.13;;;3.90;;
7997;SDS011;4044;49.814;7.828;2022-07-21T15:46:49;4.63;;;4.22;;